sensor_id;sensor_type;location;lat;lon;timestamp;temperature;humidity
59651;DHT22;45954;49.768;8.636;2023-06-22T00:02:18;25.00;99.20
59651;DHT22;45954;49.768;8.636;2023-06-22T00:04:44;25.00;98.90
59651;DHT22;45954;49.768;8.636;2023-06-22T00:07:10;25.00;99.10
59651;DHT22;45954;49.768;8.636;2023-06-22T00:09:36;24.70;99.30
59651;DHT22;45954;49.768;8.636;2023-06-22T00:12:02;24.80;99.20
59651;DHT22;45954;49.768;8.636;2023-06-22T00:14:29;24.60;99.50
59651;DHT22;45954;49.768;8.636;2023-06-22T00:16:54;24.80;99.60
59651;DHT22;45954;49.768;8.636;2023-06-22T00:19:24;24.50;99.90
59651;DHT22;45954;49.768;8.636;2023-06-22T00:21:50;24.50;99.90
59651;DHT22;45954;49.768;8.636;2023-06-22T00:24:23;24.50;99.90
59651;DHT22;45954;49.768;8.636;2023-06-22T00:26:49;24.60;99.90
59651;DHT22;45954;49.768;8.636;2023-06-22T00:29:16;24.50;99.90
59651;DHT22;45954;49.768;8.636;2023-06-22T00:31:42;24.20;99.90
59651;DHT22;45954;49.768;8.636;2023-06-22T00:34:08;23.80;99.90
59651;DHT22;45954;49.768;8.636;2023-06-22T00:36:35;23.60;99.90
59651;DHT22;45954;49.768;8.636;2023-06-22T00:39:01;23.90;99.90
59651;DHT22;45954;49.768;8.636;2023-06-22T00:41:28;24.10;99.90
59651;DHT22;45954;49.768;8.636;2023-06-22T00:43:54;24.20;99.90
59651;DHT22;45954;49.768;8.636;2023-06-22T00:46:22;24.40;99.90
59651;DHT22;45954;49.768;8.636;2023-06-22T00:48:48;24.50;99.90
59651;DHT22;45954;49.768;8.636;2023-06-22T00:51:16;24.60;99.90
59651;DHT22;45954;49.768;8.636;2023-06-22T00:53:42;24.60;99.90
59651;DHT22;45954;49.768;8.636;2023-06-22T00:56:08;24.60;99.90
59651;DHT22;45954;49.768;8.636;2023-06-22T00:58:38;24.60;99.90
59651;DHT22;45954;49.768;8.636;2023-06-22T01:01:07;23.70;99.90
59651;DHT22;45954;49.768;8.636;2023-06-22T01:03:33;23.30;99.90
59651;DHT22;45954;49.768;8.636;2023-06-22T01:06:08;23.40;99.90
59651;DHT22;45954;49.768;8.636;2023-06-22T01:08:46;23.50;99.90
59651;DHT22;45954;49.768;8.636;2023-06-22T01:11:35;23.80;99.90
59651;DHT22;45954;49.768;8.636;2023-06-22T01:16:44;23.80;99.90
59651;DHT22;45954;49.768;8.636;2023-06-22T01:19:29;23.40;99.90
59651;DHT22;45954;49.768;8.636;2023-06-22T01:21:59;23.20;99.90
59651;DHT22;45954;49.768;8.636;2023-06-22T01:24:27;23.20;99.90
59651;DHT22;45954;49.768;8.636;2023-06-22T01:30:08;22.80;99.90
59651;DHT22;45954;49.768;8.636;2023-06-22T01:32:38;22.80;99.90
59651;DHT22;45954;49.768;8.636;2023-06-22T01:35:07;23.10;99.90
59651;DHT22;45954;49.768;8.636;2023-06-22T01:37:36;22.90;99.90
59651;DHT22;45954;49.768;8.636;2023-06-22T01:40:05;22.80;99.90
59651;DHT22;45954;49.768;8.636;2023-06-22T01:42:33;22.80;99.90
59651;DHT22;45954;49.768;8.636;2023-06-22T01:45:00;23.00;99.90
59651;DHT22;45954;49.768;8.636;2023-06-22T01:47:27;23.00;99.90
59651;DHT22;45954;49.768;8.636;2023-06-22T01:49:54;22.40;99.90
59651;DHT22;45954;49.768;8.636;2023-06-22T01:52:20;22.10;99.90
59651;DHT22;45954;49.768;8.636;2023-06-22T01:54:47;22.10;99.90
59651;DHT22;45954;49.768;8.636;2023-06-22T01:57:13;22.30;99.90
59651;DHT22;45954;49.768;8.636;2023-06-22T01:59:59;22.30;99.90
59651;DHT22;45954;49.768;8.636;2023-06-22T02:02:33;22.40;99.90
59651;DHT22;45954;49.768;8.636;2023-06-22T02:05:07;22.40;99.90
59651;DHT22;45954;49.768;8.636;2023-06-22T02:07:49;22.30;99.90
59651;DHT22;45954;49.768;8.636;2023-06-22T02:10:21;22.60;99.90
59651;DHT22;45954;49.768;8.636;2023-06-22T02:12:48;22.70;99.90
59651;DHT22;45954;49.768;8.636;2023-06-22T02:15:16;22.90;99.90
59651;DHT22;45954;49.768;8.636;2023-06-22T02:17:43;23.00;99.90
59651;DHT22;45954;49.768;8.636;2023-06-22T02:20:15;22.80;99.90
59651;DHT22;45954;49.768;8.636;2023-06-22T02:22:41;22.60;99.90
59651;DHT22;45954;49.768;8.636;2023-06-22T02:25:08;22.60;99.90
59651;DHT22;45954;49.768;8.636;2023-06-22T02:27:34;22.50;99.90
59651;DHT22;45954;49.768;8.636;2023-06-22T02:30:00;22.60;99.90
59651;DHT22;45954;49.768;8.636;2023-06-22T02:32:25;22.90;99.90
59651;DHT22;45954;49.768;8.636;2023-06-22T02:34:52;23.00;99.90
59651;DHT22;45954;49.768;8.636;2023-06-22T02:37:18;22.80;99.90
59651;DHT22;45954;49.768;8.636;2023-06-22T02:39:44;22.80;99.90
59651;DHT22;45954;49.768;8.636;2023-06-22T02:42:10;23.00;99.90
59651;DHT22;45954;49.768;8.636;2023-06-22T02:44:36;23.00;99.90
59651;DHT22;45954;49.768;8.636;2023-06-22T02:47:03;23.00;99.90
59651;DHT22;45954;49.768;8.636;2023-06-22T02:49:29;23.00;99.90
59651;DHT22;45954;49.768;8.636;2023-06-22T02:51:55;22.90;99.90
59651;DHT22;45954;49.768;8.636;2023-06-22T02:54:20;22.50;99.90
59651;DHT22;45954;49.768;8.636;2023-06-22T02:56:46;22.50;99.90
59651;DHT22;45954;49.768;8.636;2023-06-22T02:59:13;22.60;99.90
59651;DHT22;45954;49.768;8.636;2023-06-22T03:01:40;22.40;99.90
59651;DHT22;45954;49.768;8.636;2023-06-22T03:04:07;22.40;99.90
59651;DHT22;45954;49.768;8.636;2023-06-22T03:06:34;22.50;99.90
59651;DHT22;45954;49.768;8.636;2023-06-22T03:09:04;22.60;99.90
59651;DHT22;45954;49.768;8.636;2023-06-22T03:11:34;22.50;99.90
59651;DHT22;45954;49.768;8.636;2023-06-22T03:14:01;22.60;99.90
59651;DHT22;45954;49.768;8.636;2023-06-22T03:16:27;22.70;99.90
59651;DHT22;45954;49.768;8.636;2023-06-22T03:18:53;22.70;99.90
59651;DHT22;45954;49.768;8.636;2023-06-22T03:21:21;22.60;99.90
59651;DHT22;45954;49.768;8.636;2023-06-22T03:23:48;22.60;99.90
59651;DHT22;45954;49.768;8.636;2023-06-22T03:26:17;22.50;99.90
59651;DHT22;45954;49.768;8.636;2023-06-22T03:28:43;22.60;99.90
59651;DHT22;45954;49.768;8.636;2023-06-22T03:31:09;22.70;99.90
59651;DHT22;45954;49.768;8.636;2023-06-22T03:33:35;22.60;99.90
59651;DHT22;45954;49.768;8.636;2023-06-22T03:36:01;22.70;99.90
59651;DHT22;45954;49.768;8.636;2023-06-22T03:38:27;22.60;99.90
59651;DHT22;45954;49.768;8.636;2023-06-22T03:40:53;22.30;99.90
59651;DHT22;45954;49.768;8.636;2023-06-22T03:43:18;22.20;99.90
59651;DHT22;45954;49.768;8.636;2023-06-22T03:45:44;22.20;99.90
59651;DHT22;45954;49.768;8.636;2023-06-22T03:48:13;22.30;99.90
59651;DHT22;45954;49.768;8.636;2023-06-22T03:50:39;22.40;99.90
59651;DHT22;45954;49.768;8.636;2023-06-22T03:53:04;22.40;99.90
59651;DHT22;45954;49.768;8.636;2023-06-22T03:55:30;22.30;99.90
59651;DHT22;45954;49.768;8.636;2023-06-22T03:57:56;22.30;99.90
59651;DHT22;45954;49.768;8.636;2023-06-22T04:00:25;22.40;99.90
59651;DHT22;45954;49.768;8.636;2023-06-22T04:02:51;22.40;99.90
59651;DHT22;45954;49.768;8.636;2023-06-22T04:05:17;22.20;99.90
59651;DHT22;45954;49.768;8.636;2023-06-22T04:07:45;22.00;99.90
59651;DHT22;45954;49.768;8.636;2023-06-22T04:10:11;21.90;99.90
59651;DHT22;45954;49.768;8.636;2023-06-22T04:12:37;22.00;99.90
59651;DHT22;45954;49.768;8.636;2023-06-22T04:15:04;22.20;99.90
59651;DHT22;45954;49.768;8.636;2023-06-22T04:17:30;22.40;99.90
59651;DHT22;45954;49.768;8.636;2023-06-22T04:19:56;22.60;99.90
59651;DHT22;45954;49.768;8.636;2023-06-22T04:22:21;22.60;99.90
59651;DHT22;45954;49.768;8.636;2023-06-22T04:24:47;22.50;99.90
59651;DHT22;45954;49.768;8.636;2023-06-22T04:27:13;22.50;99.90
59651;DHT22;45954;49.768;8.636;2023-06-22T04:29:39;22.20;99.90
59651;DHT22;45954;49.768;8.636;2023-06-22T04:32:17;22.40;99.90
59651;DHT22;45954;49.768;8.636;2023-06-22T04:34:43;22.30;99.90
59651;DHT22;45954;49.768;8.636;2023-06-22T04:37:09;22.40;99.90
59651;DHT22;45954;49.768;8.636;2023-06-22T04:39:42;22.00;99.90
59651;DHT22;45954;49.768;8.636;2023-06-22T04:42:08;22.00;99.90
59651;DHT22;45954;49.768;8.636;2023-06-22T04:44:34;22.30;99.90
59651;DHT22;45954;49.768;8.636;2023-06-22T04:47:02;22.20;99.90
59651;DHT22;45954;49.768;8.636;2023-06-22T04:49:35;22.20;99.90
59651;DHT22;45954;49.768;8.636;2023-06-22T04:52:08;22.20;99.90
59651;DHT22;45954;49.768;8.636;2023-06-22T04:54:36;22.40;99.90
59651;DHT22;45954;49.768;8.636;2023-06-22T04:57:05;22.40;99.90
59651;DHT22;45954;49.768;8.636;2023-06-22T04:59:36;22.00;99.90
59651;DHT22;45954;49.768;8.636;2023-06-22T05:02:05;22.10;99.90
59651;DHT22;45954;49.768;8.636;2023-06-22T05:04:32;22.20;99.90
59651;DHT22;45954;49.768;8.636;2023-06-22T05:06:59;22.10;99.90
59651;DHT22;45954;49.768;8.636;2023-06-22T05:09:26;22.20;99.90
59651;DHT22;45954;49.768;8.636;2023-06-22T05:11:52;22.10;99.90
59651;DHT22;45954;49.768;8.636;2023-06-22T05:14:18;22.20;99.90
59651;DHT22;45954;49.768;8.636;2023-06-22T05:16:46;22.10;99.90
59651;DHT22;45954;49.768;8.636;2023-06-22T05:19:12;22.30;99.90
59651;DHT22;45954;49.768;8.636;2023-06-22T05:21:38;22.20;99.90
59651;DHT22;45954;49.768;8.636;2023-06-22T05:24:04;22.30;99.90
59651;DHT22;45954;49.768;8.636;2023-06-22T05:26:33;22.40;99.90
59651;DHT22;45954;49.768;8.636;2023-06-22T05:29:00;22.40;99.90
59651;DHT22;45954;49.768;8.636;2023-06-22T05:31:28;22.60;99.90
59651;DHT22;45954;49.768;8.636;2023-06-22T05:33:55;22.60;99.90
59651;DHT22;45954;49.768;8.636;2023-06-22T05:36:22;22.80;99.90
59651;DHT22;45954;49.768;8.636;2023-06-22T05:38:52;22.90;99.90
59651;DHT22;45954;49.768;8.636;2023-06-22T05:41:18;23.10;99.90
59651;DHT22;45954;49.768;8.636;2023-06-22T05:43:44;23.00;99.90
59651;DHT22;45954;49.768;8.636;2023-06-22T05:46:10;23.10;99.90
59651;DHT22;45954;49.768;8.636;2023-06-22T05:48:35;23.30;99.90
59651;DHT22;45954;49.768;8.636;2023-06-22T05:51:02;23.50;99.90
59651;DHT22;45954;49.768;8.636;2023-06-22T05:53:28;23.60;99.90
59651;DHT22;45954;49.768;8.636;2023-06-22T05:55:54;23.70;99.90
59651;DHT22;45954;49.768;8.636;2023-06-22T05:58:20;23.80;99.90
59651;DHT22;45954;49.768;8.636;2023-06-22T06:00:46;23.80;99.90
59651;DHT22;45954;49.768;8.636;2023-06-22T06:03:12;24.00;99.90
59651;DHT22;45954;49.768;8.636;2023-06-22T06:05:38;23.90;99.90
59651;DHT22;45954;49.768;8.636;2023-06-22T06:08:05;23.90;99.90
59651;DHT22;45954;49.768;8.636;2023-06-22T06:10:32;24.10;99.90
59651;DHT22;45954;49.768;8.636;2023-06-22T06:12:59;24.20;99.90
59651;DHT22;45954;49.768;8.636;2023-06-22T06:15:28;24.20;99.90
59651;DHT22;45954;49.768;8.636;2023-06-22T06:17:55;24.50;99.90
59651;DHT22;45954;49.768;8.636;2023-06-22T06:20:24;24.40;99.90
59651;DHT22;45954;49.768;8.636;2023-06-22T06:22:52;24.60;99.90
59651;DHT22;45954;49.768;8.636;2023-06-22T06:25:18;24.50;99.90
59651;DHT22;45954;49.768;8.636;2023-06-22T06:27:48;24.30;99.90
59651;DHT22;45954;49.768;8.636;2023-06-22T06:30:18;24.50;99.90
59651;DHT22;45954;49.768;8.636;2023-06-22T06:32:46;24.80;99.90
59651;DHT22;45954;49.768;8.636;2023-06-22T06:35:14;24.70;99.90
59651;DHT22;45954;49.768;8.636;2023-06-22T06:37:45;24.80;99.90
59651;DHT22;45954;49.768;8.636;2023-06-22T06:40:14;24.90;99.90
59651;DHT22;45954;49.768;8.636;2023-06-22T06:42:49;25.10;99.90
59651;DHT22;45954;49.768;8.636;2023-06-22T06:45:17;25.30;99.90
59651;DHT22;45954;49.768;8.636;2023-06-22T06:47:44;25.10;99.90
59651;DHT22;45954;49.768;8.636;2023-06-22T06:50:11;25.10;99.90
59651;DHT22;45954;49.768;8.636;2023-06-22T06:52:38;25.20;99.90
59651;DHT22;45954;49.768;8.636;2023-06-22T06:55:04;25.30;99.90
59651;DHT22;45954;49.768;8.636;2023-06-22T06:57:35;25.40;99.90
59651;DHT22;45954;49.768;8.636;2023-06-22T07:00:04;25.20;99.90
59651;DHT22;45954;49.768;8.636;2023-06-22T07:02:43;25.30;99.90
59651;DHT22;45954;49.768;8.636;2023-06-22T07:05:11;25.20;99.90
59651;DHT22;45954;49.768;8.636;2023-06-22T07:07:38;25.40;99.90
59651;DHT22;45954;49.768;8.636;2023-06-22T07:10:07;25.60;99.90
59651;DHT22;45954;49.768;8.636;2023-06-22T07:12:34;25.70;99.90
59651;DHT22;45954;49.768;8.636;2023-06-22T07:15:08;25.70;99.90
59651;DHT22;45954;49.768;8.636;2023-06-22T07:17:36;25.70;99.90
59651;DHT22;45954;49.768;8.636;2023-06-22T07:20:03;25.80;99.90
59651;DHT22;45954;49.768;8.636;2023-06-22T07:22:36;25.80;99.90
59651;DHT22;45954;49.768;8.636;2023-06-22T07:25:02;25.60;99.90
59651;DHT22;45954;49.768;8.636;2023-06-22T07:27:58;25.70;99.90
59651;DHT22;45954;49.768;8.636;2023-06-22T07:30:25;25.70;99.90
59651;DHT22;45954;49.768;8.636;2023-06-22T07:32:51;25.90;99.90
59651;DHT22;45954;49.768;8.636;2023-06-22T07:35:17;26.00;99.90
59651;DHT22;45954;49.768;8.636;2023-06-22T07:37:43;25.90;99.90
59651;DHT22;45954;49.768;8.636;2023-06-22T07:40:09;25.90;99.90
59651;DHT22;45954;49.768;8.636;2023-06-22T07:42:35;26.10;99.90
59651;DHT22;45954;49.768;8.636;2023-06-22T07:45:03;26.30;99.90
59651;DHT22;45954;49.768;8.636;2023-06-22T07:47:30;26.40;99.90
59651;DHT22;45954;49.768;8.636;2023-06-22T07:49:58;26.30;99.90
59651;DHT22;45954;49.768;8.636;2023-06-22T07:52:27;26.50;99.90
59651;DHT22;45954;49.768;8.636;2023-06-22T07:54:54;26.80;99.90
59651;DHT22;45954;49.768;8.636;2023-06-22T07:57:20;27.00;99.90
59651;DHT22;45954;49.768;8.636;2023-06-22T07:59:46;27.10;99.90
59651;DHT22;45954;49.768;8.636;2023-06-22T08:02:12;27.20;99.90
59651;DHT22;45954;49.768;8.636;2023-06-22T08:04:38;27.20;99.90
59651;DHT22;45954;49.768;8.636;2023-06-22T08:07:05;27.20;99.90
59651;DHT22;45954;49.768;8.636;2023-06-22T08:09:32;27.30;99.90
59651;DHT22;45954;49.768;8.636;2023-06-22T08:11:59;27.40;99.90
59651;DHT22;45954;49.768;8.636;2023-06-22T08:14:26;27.50;99.90
59651;DHT22;45954;49.768;8.636;2023-06-22T08:16:52;27.60;99.90
59651;DHT22;45954;49.768;8.636;2023-06-22T08:19:18;27.60;99.90
59651;DHT22;45954;49.768;8.636;2023-06-22T08:21:44;27.70;99.90
59651;DHT22;45954;49.768;8.636;2023-06-22T08:24:10;27.80;99.90
59651;DHT22;45954;49.768;8.636;2023-06-22T08:26:36;27.90;99.90
59651;DHT22;45954;49.768;8.636;2023-06-22T08:29:03;28.00;99.90
59651;DHT22;45954;49.768;8.636;2023-06-22T08:31:31;28.00;99.90
59651;DHT22;45954;49.768;8.636;2023-06-22T08:33:59;27.90;99.90
59651;DHT22;45954;49.768;8.636;2023-06-22T08:36:25;27.90;99.60
59651;DHT22;45954;49.768;8.636;2023-06-22T08:38:51;28.10;99.40
59651;DHT22;45954;49.768;8.636;2023-06-22T08:41:17;28.20;99.30
59651;DHT22;45954;49.768;8.636;2023-06-22T08:43:44;28.30;99.60
59651;DHT22;45954;49.768;8.636;2023-06-22T08:46:10;28.50;99.40
59651;DHT22;45954;49.768;8.636;2023-06-22T08:48:36;28.50;99.50
59651;DHT22;45954;49.768;8.636;2023-06-22T08:51:02;28.50;98.80
59651;DHT22;45954;49.768;8.636;2023-06-22T08:53:29;28.60;98.80
59651;DHT22;45954;49.768;8.636;2023-06-22T08:55:54;28.80;98.80
59651;DHT22;45954;49.768;8.636;2023-06-22T08:58:20;28.90;98.70
59651;DHT22;45954;49.768;8.636;2023-06-22T09:00:47;28.80;98.20
59651;DHT22;45954;49.768;8.636;2023-06-22T09:03:13;28.90;98.70
59651;DHT22;45954;49.768;8.636;2023-06-22T09:05:39;28.90;98.60
59651;DHT22;45954;49.768;8.636;2023-06-22T09:08:05;28.70;98.20
59651;DHT22;45954;49.768;8.636;2023-06-22T09:10:31;28.70;98.20
59651;DHT22;45954;49.768;8.636;2023-06-22T09:12:57;28.80;98.20
59651;DHT22;45954;49.768;8.636;2023-06-22T09:15:23;29.00;97.80
59651;DHT22;45954;49.768;8.636;2023-06-22T09:17:49;29.30;98.10
59651;DHT22;45954;49.768;8.636;2023-06-22T09:20:15;29.60;97.90
59651;DHT22;45954;49.768;8.636;2023-06-22T09:22:41;29.80;97.80
59651;DHT22;45954;49.768;8.636;2023-06-22T09:25:08;29.90;97.40
59651;DHT22;45954;49.768;8.636;2023-06-22T09:27:34;29.90;97.10
59651;DHT22;45954;49.768;8.636;2023-06-22T09:29:59;29.80;97.30
59651;DHT22;45954;49.768;8.636;2023-06-22T09:32:25;29.90;97.40
59651;DHT22;45954;49.768;8.636;2023-06-22T09:34:51;30.20;96.70
59651;DHT22;45954;49.768;8.636;2023-06-22T09:37:18;30.10;96.90
59651;DHT22;45954;49.768;8.636;2023-06-22T09:39:44;30.00;97.00
59651;DHT22;45954;49.768;8.636;2023-06-22T09:42:10;30.20;97.00
59651;DHT22;45954;49.768;8.636;2023-06-22T09:44:37;30.10;96.80
59651;DHT22;45954;49.768;8.636;2023-06-22T09:47:03;30.00;96.90
59651;DHT22;45954;49.768;8.636;2023-06-22T09:49:29;30.10;96.50
59651;DHT22;45954;49.768;8.636;2023-06-22T09:51:54;30.40;96.40
59651;DHT22;45954;49.768;8.636;2023-06-22T09:54:20;30.50;96.30
59651;DHT22;45954;49.768;8.636;2023-06-22T09:56:46;30.50;96.50
59651;DHT22;45954;49.768;8.636;2023-06-22T09:59:12;30.70;96.30
59651;DHT22;45954;49.768;8.636;2023-06-22T10:01:38;30.90;96.10
59651;DHT22;45954;49.768;8.636;2023-06-22T10:04:04;31.10;96.40
59651;DHT22;45954;49.768;8.636;2023-06-22T10:06:30;31.40;95.70
59651;DHT22;45954;49.768;8.636;2023-06-22T10:08:55;31.60;95.40
59651;DHT22;45954;49.768;8.636;2023-06-22T10:11:21;31.70;95.40
59651;DHT22;45954;49.768;8.636;2023-06-22T10:13:52;31.50;95.00
59651;DHT22;45954;49.768;8.636;2023-06-22T10:16:18;31.60;95.00
59651;DHT22;45954;49.768;8.636;2023-06-22T10:18:44;31.70;94.70
59651;DHT22;45954;49.768;8.636;2023-06-22T10:21:10;31.80;94.50
59651;DHT22;45954;49.768;8.636;2023-06-22T10:23:35;32.00;94.30
59651;DHT22;45954;49.768;8.636;2023-06-22T10:26:01;31.80;94.40
59651;DHT22;45954;49.768;8.636;2023-06-22T10:28:27;32.00;94.50
59651;DHT22;45954;49.768;8.636;2023-06-22T10:30:53;32.40;94.10
59651;DHT22;45954;49.768;8.636;2023-06-22T10:33:19;32.40;94.00
59651;DHT22;45954;49.768;8.636;2023-06-22T10:35:46;32.30;94.00
59651;DHT22;45954;49.768;8.636;2023-06-22T10:38:11;32.60;93.90
59651;DHT22;45954;49.768;8.636;2023-06-22T10:40:37;32.70;93.40
59651;DHT22;45954;49.768;8.636;2023-06-22T10:43:05;32.60;93.30
59651;DHT22;45954;49.768;8.636;2023-06-22T10:45:31;32.60;93.20
59651;DHT22;45954;49.768;8.636;2023-06-22T10:47:56;32.90;93.00
59651;DHT22;45954;49.768;8.636;2023-06-22T10:50:22;33.00;93.10
59651;DHT22;45954;49.768;8.636;2023-06-22T10:52:49;33.20;92.80
59651;DHT22;45954;49.768;8.636;2023-06-22T10:55:15;33.10;92.70
59651;DHT22;45954;49.768;8.636;2023-06-22T10:57:41;32.80;92.40
59651;DHT22;45954;49.768;8.636;2023-06-22T11:00:10;33.00;93.10
59651;DHT22;45954;49.768;8.636;2023-06-22T11:02:37;33.10;92.70
59651;DHT22;45954;49.768;8.636;2023-06-22T11:05:03;33.10;92.90
59651;DHT22;45954;49.768;8.636;2023-06-22T11:07:29;33.20;92.50
59651;DHT22;45954;49.768;8.636;2023-06-22T11:09:55;33.30;92.50
59651;DHT22;45954;49.768;8.636;2023-06-22T11:12:21;33.50;92.60
59651;DHT22;45954;49.768;8.636;2023-06-22T11:14:47;33.90;92.50
59651;DHT22;45954;49.768;8.636;2023-06-22T11:17:15;33.90;91.50
59651;DHT22;45954;49.768;8.636;2023-06-22T11:19:41;34.20;91.40
59651;DHT22;45954;49.768;8.636;2023-06-22T11:22:07;34.40;91.50
59651;DHT22;45954;49.768;8.636;2023-06-22T11:24:33;34.40;90.60
59651;DHT22;45954;49.768;8.636;2023-06-22T11:26:59;34.30;90.70
59651;DHT22;45954;49.768;8.636;2023-06-22T11:29:24;34.00;90.30
59651;DHT22;45954;49.768;8.636;2023-06-22T11:31:50;34.10;90.60
59651;DHT22;45954;49.768;8.636;2023-06-22T11:34:16;34.00;90.50
59651;DHT22;45954;49.768;8.636;2023-06-22T11:36:42;33.80;90.30
59651;DHT22;45954;49.768;8.636;2023-06-22T11:39:09;33.80;90.50
59651;DHT22;45954;49.768;8.636;2023-06-22T11:41:35;33.90;90.60
59651;DHT22;45954;49.768;8.636;2023-06-22T11:44:01;33.90;90.60
59651;DHT22;45954;49.768;8.636;2023-06-22T11:46:27;34.00;90.20
59651;DHT22;45954;49.768;8.636;2023-06-22T11:48:53;33.80;90.30
59651;DHT22;45954;49.768;8.636;2023-06-22T11:51:19;33.90;90.00
59651;DHT22;45954;49.768;8.636;2023-06-22T11:53:44;34.00;90.10
59651;DHT22;45954;49.768;8.636;2023-06-22T11:56:10;34.40;90.30
59651;DHT22;45954;49.768;8.636;2023-06-22T11:58:36;34.70;89.90
59651;DHT22;45954;49.768;8.636;2023-06-22T12:01:02;34.60;89.70
59651;DHT22;45954;49.768;8.636;2023-06-22T12:03:28;34.30;90.00
59651;DHT22;45954;49.768;8.636;2023-06-22T12:05:54;34.30;90.00
59651;DHT22;45954;49.768;8.636;2023-06-22T12:08:20;34.20;89.70
59651;DHT22;45954;49.768;8.636;2023-06-22T12:10:46;34.50;88.90
59651;DHT22;45954;49.768;8.636;2023-06-22T12:13:12;34.30;88.30
59651;DHT22;45954;49.768;8.636;2023-06-22T12:15:38;34.30;87.20
59651;DHT22;45954;49.768;8.636;2023-06-22T12:18:04;34.70;86.80
59651;DHT22;45954;49.768;8.636;2023-06-22T12:20:30;34.80;86.90
59651;DHT22;45954;49.768;8.636;2023-06-22T12:22:56;34.40;87.20
59651;DHT22;45954;49.768;8.636;2023-06-22T12:25:24;34.50;88.00
59651;DHT22;45954;49.768;8.636;2023-06-22T12:27:50;34.50;87.40
59651;DHT22;45954;49.768;8.636;2023-06-22T12:30:16;34.40;87.20
59651;DHT22;45954;49.768;8.636;2023-06-22T12:32:42;34.50;85.90
59651;DHT22;45954;49.768;8.636;2023-06-22T12:35:08;34.40;86.20
59651;DHT22;45954;49.768;8.636;2023-06-22T12:37:40;34.50;85.80
59651;DHT22;45954;49.768;8.636;2023-06-22T12:40:08;34.40;85.10
59651;DHT22;45954;49.768;8.636;2023-06-22T12:42:35;34.40;85.60
59651;DHT22;45954;49.768;8.636;2023-06-22T12:45:00;34.40;84.90
59651;DHT22;45954;49.768;8.636;2023-06-22T12:47:26;34.50;85.40
59651;DHT22;45954;49.768;8.636;2023-06-22T12:49:52;34.50;85.00
59651;DHT22;45954;49.768;8.636;2023-06-22T12:52:18;34.60;85.00
59651;DHT22;45954;49.768;8.636;2023-06-22T12:54:44;34.80;83.90
59651;DHT22;45954;49.768;8.636;2023-06-22T12:57:10;34.90;83.50
59651;DHT22;45954;49.768;8.636;2023-06-22T12:59:35;34.90;83.80
59651;DHT22;45954;49.768;8.636;2023-06-22T13:02:01;35.00;84.70
59651;DHT22;45954;49.768;8.636;2023-06-22T13:04:27;34.90;83.80
59651;DHT22;45954;49.768;8.636;2023-06-22T13:06:53;34.70;84.30
59651;DHT22;45954;49.768;8.636;2023-06-22T13:09:19;34.40;83.90
59651;DHT22;45954;49.768;8.636;2023-06-22T13:11:45;34.40;84.10
59651;DHT22;45954;49.768;8.636;2023-06-22T13:14:11;34.70;83.50
59651;DHT22;45954;49.768;8.636;2023-06-22T13:16:37;34.90;83.30
59651;DHT22;45954;49.768;8.636;2023-06-22T13:19:03;34.80;83.00
59651;DHT22;45954;49.768;8.636;2023-06-22T13:21:30;35.10;82.30
59651;DHT22;45954;49.768;8.636;2023-06-22T13:23:56;35.50;81.80
59651;DHT22;45954;49.768;8.636;2023-06-22T13:26:22;35.70;80.50
59651;DHT22;45954;49.768;8.636;2023-06-22T13:28:48;35.10;81.60
59651;DHT22;45954;49.768;8.636;2023-06-22T13:31:13;35.30;80.70
59651;DHT22;45954;49.768;8.636;2023-06-22T13:33:39;35.20;80.90
59651;DHT22;45954;49.768;8.636;2023-06-22T13:36:07;35.10;81.10
59651;DHT22;45954;49.768;8.636;2023-06-22T13:38:35;35.30;81.00
59651;DHT22;45954;49.768;8.636;2023-06-22T13:41:04;35.50;80.60
59651;DHT22;45954;49.768;8.636;2023-06-22T13:43:31;35.80;80.40
59651;DHT22;45954;49.768;8.636;2023-06-22T13:45:57;36.00;79.30
59651;DHT22;45954;49.768;8.636;2023-06-22T13:48:23;36.00;78.60
59651;DHT22;45954;49.768;8.636;2023-06-22T13:50:52;36.70;78.40
59651;DHT22;45954;49.768;8.636;2023-06-22T13:53:18;36.60;77.30
59651;DHT22;45954;49.768;8.636;2023-06-22T13:55:44;37.00;76.90
59651;DHT22;45954;49.768;8.636;2023-06-22T13:58:10;37.20;75.60
59651;DHT22;45954;49.768;8.636;2023-06-22T14:00:37;37.50;75.90
59651;DHT22;45954;49.768;8.636;2023-06-22T14:03:03;37.40;74.50
59651;DHT22;45954;49.768;8.636;2023-06-22T14:05:29;37.30;75.90
59651;DHT22;45954;49.768;8.636;2023-06-22T14:07:55;37.40;75.00
59651;DHT22;45954;49.768;8.636;2023-06-22T14:10:21;38.00;73.50
59651;DHT22;45954;49.768;8.636;2023-06-22T14:12:46;38.10;73.20
59651;DHT22;45954;49.768;8.636;2023-06-22T14:15:12;38.10;73.30
59651;DHT22;45954;49.768;8.636;2023-06-22T14:17:38;38.50;71.30
59651;DHT22;45954;49.768;8.636;2023-06-22T14:20:05;38.50;70.10
59651;DHT22;45954;49.768;8.636;2023-06-22T14:22:33;38.60;70.30
59651;DHT22;45954;49.768;8.636;2023-06-22T14:25:00;38.00;70.20
59651;DHT22;45954;49.768;8.636;2023-06-22T14:27:27;38.30;70.80
59651;DHT22;45954;49.768;8.636;2023-06-22T14:29:52;38.90;70.70
59651;DHT22;45954;49.768;8.636;2023-06-22T14:32:18;39.10;70.40
59651;DHT22;45954;49.768;8.636;2023-06-22T14:34:44;39.00;70.90
59651;DHT22;45954;49.768;8.636;2023-06-22T14:37:10;39.10;70.60
59651;DHT22;45954;49.768;8.636;2023-06-22T14:39:38;39.10;70.30
59651;DHT22;45954;49.768;8.636;2023-06-22T14:42:05;39.10;70.60
59651;DHT22;45954;49.768;8.636;2023-06-22T14:44:32;38.50;70.60
59651;DHT22;45954;49.768;8.636;2023-06-22T14:46:58;37.60;71.30
59651;DHT22;45954;49.768;8.636;2023-06-22T14:49:25;37.50;72.30
59651;DHT22;45954;49.768;8.636;2023-06-22T14:51:50;37.30;72.50
59651;DHT22;45954;49.768;8.636;2023-06-22T14:54:16;37.20;72.50
59651;DHT22;45954;49.768;8.636;2023-06-22T14:56:42;37.20;72.60
59651;DHT22;45954;49.768;8.636;2023-06-22T14:59:09;37.00;72.80
59651;DHT22;45954;49.768;8.636;2023-06-22T15:01:35;36.90;73.30
59651;DHT22;45954;49.768;8.636;2023-06-22T15:04:01;37.30;72.60
59651;DHT22;45954;49.768;8.636;2023-06-22T15:06:28;37.50;72.30
59651;DHT22;45954;49.768;8.636;2023-06-22T15:08:53;37.60;71.80
59651;DHT22;45954;49.768;8.636;2023-06-22T15:11:20;37.70;71.50
59651;DHT22;45954;49.768;8.636;2023-06-22T15:13:46;38.10;71.70
59651;DHT22;45954;49.768;8.636;2023-06-22T15:16:12;38.00;71.00
59651;DHT22;45954;49.768;8.636;2023-06-22T15:18:38;37.60;71.40
59651;DHT22;45954;49.768;8.636;2023-06-22T15:21:07;37.50;71.20
59651;DHT22;45954;49.768;8.636;2023-06-22T15:23:34;37.40;71.30
59651;DHT22;45954;49.768;8.636;2023-06-22T15:26:03;36.80;72.70
59651;DHT22;45954;49.768;8.636;2023-06-22T15:28:30;36.90;71.80
59651;DHT22;45954;49.768;8.636;2023-06-22T15:30:58;36.50;72.40
59651;DHT22;45954;49.768;8.636;2023-06-22T15:33:24;35.90;72.70
59651;DHT22;45954;49.768;8.636;2023-06-22T15:35:51;36.00;73.00